createdAt,value
2023-04-16T00:01:50.949Z,11.35
2023-04-16T00:04:17.857Z,11.85
2023-04-16T00:06:44.729Z,13.45
2023-04-16T00:09:11.782Z,13.25
2023-04-16T00:11:38.698Z,13.00
2023-04-16T00:14:05.815Z,11.90
2023-04-16T00:16:32.747Z,12.80
2023-04-16T00:18:59.650Z,13.43
2023-04-16T00:21:26.593Z,11.68
2023-04-16T00:23:53.468Z,10.50
2023-04-16T00:26:20.524Z,9.77
2023-04-16T00:28:47.823Z,11.45
2023-04-16T00:31:14.643Z,11.23
2023-04-16T00:33:41.473Z,9.95
2023-04-16T00:36:08.353Z,13.18
2023-04-16T00:38:35.433Z,12.13
2023-04-16T00:41:04.122Z,11.05
2023-04-16T00:43:31.715Z,12.38
2023-04-16T00:45:58.672Z,12.10
2023-04-16T00:48:27.940Z,10.52
2023-04-16T00:50:55.505Z,12.45
2023-04-16T00:53:22.396Z,11.00
2023-04-16T00:55:49.274Z,13.90
2023-04-16T00:58:16.338Z,9.75
2023-04-16T01:00:43.089Z,9.77
2023-04-16T01:03:10.501Z,10.65
2023-04-16T01:05:37.441Z,10.45
2023-04-16T01:08:04.337Z,9.82
2023-04-16T01:10:31.820Z,11.10
2023-04-16T01:12:58.596Z,10.93
2023-04-16T01:15:25.436Z,12.43
2023-04-16T01:17:52.298Z,10.68
2023-04-16T01:20:19.210Z,15.48
2023-04-16T01:22:45.971Z,9.80
2023-04-16T01:25:16.293Z,9.75
2023-04-16T01:27:43.192Z,9.30
2023-04-16T01:30:10.251Z,11.45
2023-04-16T01:32:53.475Z,10.68
2023-04-16T01:35:20.484Z,10.45
2023-04-16T01:37:47.285Z,9.63
2023-04-16T01:40:14.150Z,11.30
2023-04-16T01:42:41.006Z,9.40
2023-04-16T01:45:08.291Z,11.38
2023-04-16T01:47:35.114Z,10.05
2023-04-16T01:50:02.018Z,9.27
2023-04-16T01:52:29.503Z,9.30
2023-04-16T01:54:57.215Z,10.30
2023-04-16T01:57:24.065Z,10.68
2023-04-16T01:59:50.985Z,9.50
2023-04-16T02:02:18.055Z,8.48
2023-04-16T02:04:45.927Z,9.50
2023-04-16T02:07:12.705Z,11.20
2023-04-16T02:09:40.772Z,11.18
2023-04-16T02:12:07.918Z,9.85
2023-04-16T02:14:34.775Z,8.25
2023-04-16T02:17:02.191Z,10.52
2023-04-16T02:19:40.821Z,9.75
2023-04-16T02:22:09.354Z,9.90
2023-04-16T02:24:36.130Z,9.18
2023-04-16T02:27:07.135Z,9.32
2023-04-16T02:29:34.123Z,8.13
2023-04-16T02:32:09.409Z,8.88
2023-04-16T02:34:36.618Z,8.95
2023-04-16T02:37:04.193Z,11.75
2023-04-16T02:39:31.025Z,9.50
2023-04-16T02:41:59.345Z,8.18
2023-04-16T02:44:26.681Z,7.15
2023-04-16T02:46:53.477Z,10.50
2023-04-16T02:49:20.341Z,7.63
2023-04-16T02:51:48.515Z,9.52
2023-04-16T02:54:15.518Z,9.73
2023-04-16T02:56:42.327Z,10.10
2023-04-16T02:59:09.422Z,8.27
2023-04-16T03:01:36.435Z,9.43
2023-04-16T03:04:03.407Z,9.02
2023-04-16T03:06:31.435Z,8.70
2023-04-16T03:08:58.367Z,7.88
2023-04-16T03:11:25.134Z,8.70
2023-04-16T03:13:51.879Z,9.07
2023-04-16T03:16:18.717Z,7.72
2023-04-16T03:18:45.730Z,8.15
2023-04-16T03:21:12.549Z,8.32
2023-04-16T03:23:39.346Z,11.43
2023-04-16T03:26:06.531Z,8.45
2023-04-16T03:28:33.754Z,7.47
2023-04-16T03:31:00.559Z,9.05
2023-04-16T03:33:28.603Z,8.98
2023-04-16T03:35:59.083Z,9.18
2023-04-16T03:38:29.342Z,9.27
2023-04-16T03:40:57.752Z,8.43
2023-04-16T03:43:27.887Z,8.45
2023-04-16T03:45:54.720Z,6.93
2023-04-16T03:48:23.474Z,7.38
2023-04-16T03:50:50.444Z,6.75
2023-04-16T03:53:19.361Z,9.18
2023-04-16T03:55:51.258Z,7.95
2023-04-16T03:58:18.805Z,7.22
2023-04-16T04:00:47.170Z,8.35
2023-04-16T04:03:18.570Z,6.45
2023-04-16T04:05:48.583Z,7.72
2023-04-16T04:08:20.816Z,7.28
2023-04-16T04:10:47.948Z,8.15
2023-04-16T04:13:15.210Z,5.65
2023-04-16T04:15:42.566Z,9.43
2023-04-16T04:18:09.677Z,7.43
2023-04-16T04:20:40.911Z,8.40
2023-04-16T04:23:08.359Z,8.32
2023-04-16T04:25:35.312Z,9.95
2023-04-16T04:28:02.194Z,9.05
2023-04-16T04:30:31.255Z,7.25
2023-04-16T04:32:58.332Z,7.60
2023-04-16T04:35:25.193Z,7.25
2023-04-16T04:37:52.934Z,7.10
2023-04-16T04:40:21.091Z,8.35
2023-04-16T04:42:48.055Z,6.65
2023-04-16T04:45:15.616Z,7.95
2023-04-16T04:47:42.501Z,7.68
2023-04-16T04:50:09.737Z,7.78
2023-04-16T04:52:36.722Z,7.70
2023-04-16T04:55:03.809Z,8.25
2023-04-16T04:57:30.926Z,5.93
2023-04-16T04:59:58.065Z,8.75
2023-04-16T05:02:25.060Z,9.30
2023-04-16T05:04:51.943Z,7.75
2023-04-16T05:07:18.742Z,7.22
2023-04-16T05:09:45.522Z,7.00
2023-04-16T05:12:13.064Z,9.27
2023-04-16T05:14:39.885Z,8.65
2023-04-16T05:17:08.091Z,8.73
2023-04-16T05:19:35.301Z,12.75
2023-04-16T05:22:02.730Z,9.43
2023-04-16T05:24:29.563Z,9.57
2023-04-16T05:26:57.319Z,7.75
2023-04-16T05:29:24.274Z,10.23
2023-04-16T05:31:51.116Z,10.07
2023-04-16T05:34:17.892Z,8.57
2023-04-16T05:36:44.696Z,7.70
2023-04-16T05:39:11.903Z,10.05
2023-04-16T05:41:38.821Z,8.82
2023-04-16T05:44:05.649Z,9.85
2023-04-16T05:46:32.500Z,9.45
2023-04-16T05:48:59.417Z,13.38
2023-04-16T05:51:27.256Z,10.93
2023-04-16T05:53:54.010Z,8.88
2023-04-16T05:56:21.865Z,11.15
2023-04-16T05:58:48.617Z,10.25
2023-04-16T06:01:16.566Z,11.95
2023-04-16T06:03:43.566Z,13.63
2023-04-16T06:06:10.436Z,9.52
2023-04-16T06:08:37.197Z,11.18
2023-04-16T06:11:04.025Z,11.57
2023-04-16T06:13:30.975Z,12.18
2023-04-16T06:15:57.743Z,9.93
2023-04-16T06:18:24.670Z,12.02
2023-04-16T06:20:51.530Z,9.35
2023-04-16T06:23:18.398Z,10.35
2023-04-16T06:25:45.241Z,12.68
2023-04-16T06:28:11.994Z,11.35
2023-04-16T06:30:39.414Z,12.65
2023-04-16T06:33:06.181Z,14.30
2023-04-16T06:35:32.956Z,13.63
2023-04-16T06:37:59.765Z,14.18
2023-04-16T06:40:26.669Z,12.88
2023-04-16T06:42:53.963Z,12.43
2023-04-16T06:45:20.866Z,10.55
2023-04-16T06:47:48.220Z,12.43
2023-04-16T06:50:15.466Z,14.48
2023-04-16T06:52:42.315Z,11.93
2023-04-16T06:55:10.042Z,10.85
2023-04-16T06:57:37.577Z,13.60
2023-04-16T07:00:08.070Z,12.68
2023-04-16T07:02:35.369Z,11.48
2023-04-16T07:05:02.329Z,14.52
2023-04-16T07:07:29.078Z,14.85
2023-04-16T07:09:55.900Z,14.15
2023-04-16T07:12:22.996Z,15.25
2023-04-16T07:14:49.866Z,15.27
2023-04-16T07:17:16.682Z,13.32
2023-04-16T07:19:43.978Z,12.52
2023-04-16T07:22:10.830Z,14.73
2023-04-16T07:24:37.640Z,13.52
2023-04-16T07:27:04.538Z,11.90
2023-04-16T07:29:31.330Z,11.65
2023-04-16T07:31:58.418Z,12.70
2023-04-16T07:34:25.226Z,10.30
2023-04-16T07:36:52.090Z,8.57
2023-04-16T07:39:18.841Z,7.38
2023-04-16T07:41:45.850Z,8.00
2023-04-16T07:44:12.659Z,11.23
2023-04-16T07:46:47.020Z,9.02
2023-04-16T07:49:14.659Z,9.35
2023-04-16T07:51:41.473Z,10.38
2023-04-16T07:54:08.299Z,9.10
2023-04-16T07:56:35.660Z,9.30
2023-04-16T07:59:14.427Z,10.45
2023-04-16T08:01:46.052Z,8.70
2023-04-16T08:04:14.267Z,5.80
2023-04-16T08:06:41.294Z,7.82
2023-04-16T08:09:08.468Z,5.68
2023-04-16T08:11:35.502Z,5.85
2023-04-16T08:14:02.368Z,5.63
2023-04-16T08:16:29.206Z,5.43
2023-04-16T08:18:55.974Z,5.97
2023-04-16T08:21:22.792Z,5.65
2023-04-16T08:23:49.643Z,5.20
2023-04-16T08:26:17.476Z,7.30
2023-04-16T08:28:44.221Z,6.78
2023-04-16T08:31:11.161Z,4.70
2023-04-16T08:33:37.944Z,6.85
2023-04-16T08:36:05.096Z,9.65
2023-04-16T08:38:31.922Z,6.45
2023-04-16T08:41:02.925Z,4.68
2023-04-16T08:43:29.789Z,5.55
2023-04-16T08:45:56.877Z,5.53
2023-04-16T08:48:23.709Z,4.25
2023-04-16T08:50:52.423Z,4.00
2023-04-16T08:53:23.022Z,4.85
2023-04-16T08:55:50.664Z,4.15
2023-04-16T08:58:22.252Z,7.20
2023-04-16T09:00:49.220Z,5.30
2023-04-16T09:03:16.203Z,5.00
2023-04-16T09:05:43.354Z,6.55
2023-04-16T09:08:10.299Z,6.57
2023-04-16T09:10:37.129Z,3.20
2023-04-16T09:13:03.979Z,3.38
2023-04-16T09:15:30.763Z,2.65
2023-04-16T09:17:57.851Z,2.63
2023-04-16T09:20:24.741Z,3.65
2023-04-16T09:22:51.583Z,2.40
2023-04-16T09:25:19.480Z,3.08
2023-04-16T09:27:47.524Z,3.72
2023-04-16T09:30:24.679Z,3.03
2023-04-16T09:32:52.194Z,3.92
2023-04-16T09:35:21.671Z,2.97
2023-04-16T09:37:56.716Z,1.77
2023-04-16T09:40:27.794Z,1.88
2023-04-16T09:42:57.504Z,1.90
2023-04-16T09:45:24.437Z,2.95
2023-04-16T09:47:51.416Z,2.30
2023-04-16T09:50:19.319Z,2.38
2023-04-16T09:52:49.305Z,1.92
2023-04-16T09:55:16.310Z,2.42
2023-04-16T09:57:43.123Z,3.67
2023-04-16T10:00:10.536Z,1.67
2023-04-16T10:02:42.388Z,1.67
2023-04-16T10:05:09.891Z,1.73
2023-04-16T10:07:37.165Z,2.38
2023-04-16T10:10:04.866Z,2.83
2023-04-16T10:12:32.808Z,2.63
2023-04-16T10:14:59.634Z,1.75
2023-04-16T10:17:26.711Z,1.40
2023-04-16T10:19:54.274Z,1.33
2023-04-16T10:22:21.044Z,1.85
2023-04-16T10:24:47.811Z,1.55
2023-04-16T10:27:14.634Z,2.35
2023-04-16T10:29:41.360Z,1.10
2023-04-16T10:32:08.145Z,0.68
2023-04-16T10:34:34.981Z,0.80
2023-04-16T10:37:01.772Z,1.10
2023-04-16T10:39:29.490Z,1.23
2023-04-16T10:42:12.294Z,0.70
2023-04-16T10:44:42.540Z,1.20
2023-04-16T10:47:12.714Z,0.40
2023-04-16T10:49:39.918Z,1.30
2023-04-16T10:52:14.918Z,2.80
2023-04-16T10:54:41.784Z,2.10
2023-04-16T10:57:09.899Z,1.80
2023-04-16T10:59:37.621Z,1.63
2023-04-16T11:02:09.762Z,1.85
2023-04-16T11:04:38.320Z,1.00
2023-04-16T11:07:11.033Z,2.15
2023-04-16T11:09:59.868Z,1.00
2023-04-16T11:12:30.904Z,1.40
2023-04-16T11:15:01.416Z,1.10
2023-04-16T11:17:41.055Z,2.45
2023-04-16T11:20:18.575Z,2.33
2023-04-16T11:22:48.357Z,2.58
2023-04-16T11:25:22.946Z,2.53
2023-04-16T11:27:50.503Z,0.73
2023-04-16T11:30:19.142Z,1.98
2023-04-16T11:32:46.057Z,1.50
2023-04-16T11:35:17.437Z,1.88
2023-04-16T11:37:44.430Z,3.20
2023-04-16T11:40:11.782Z,1.50
2023-04-16T11:42:42.623Z,2.90
2023-04-16T11:45:10.936Z,1.83
2023-04-16T11:47:51.778Z,0.88
2023-04-16T11:50:27.221Z,2.60
2023-04-16T11:52:55.725Z,1.83
2023-04-16T11:55:22.868Z,1.50
2023-04-16T11:57:50.043Z,1.38
2023-04-16T12:00:19.069Z,1.00
2023-04-16T12:02:51.762Z,1.02
2023-04-16T12:05:31.020Z,1.13
2023-04-16T12:08:02.308Z,1.15
2023-04-16T12:10:37.273Z,0.88
2023-04-16T12:13:14.186Z,2.17
2023-04-16T12:15:59.191Z,0.73
2023-04-16T12:18:29.098Z,3.08
2023-04-16T12:20:56.078Z,1.33
2023-04-16T12:23:33.464Z,1.42
2023-04-16T12:26:10.229Z,2.53
2023-04-16T12:28:38.425Z,1.10
2023-04-16T12:31:05.725Z,1.65
2023-04-16T12:33:32.583Z,1.77
2023-04-16T12:35:59.473Z,1.08
2023-04-16T12:38:27.489Z,1.52
2023-04-16T12:40:56.936Z,1.85
2023-04-16T12:43:24.499Z,1.58
2023-04-16T12:45:51.416Z,1.42
2023-04-16T12:48:18.184Z,2.13
2023-04-16T12:50:45.036Z,1.40
2023-04-16T12:53:12.048Z,2.10
2023-04-16T12:55:38.910Z,0.70
2023-04-16T12:58:05.766Z,0.93
2023-04-16T13:00:32.788Z,0.90
2023-04-16T13:02:59.813Z,1.90
2023-04-16T13:05:27.230Z,1.15
2023-04-16T13:07:54.206Z,1.38
2023-04-16T13:10:21.981Z,1.50
2023-04-16T13:12:49.152Z,1.80
2023-04-16T13:15:16.116Z,1.40
2023-04-16T13:17:42.947Z,0.77
2023-04-16T13:20:10.469Z,1.85
2023-04-16T13:22:37.559Z,1.60
2023-04-16T13:25:04.895Z,0.77
2023-04-16T13:27:32.547Z,0.88
2023-04-16T13:30:00.569Z,1.95
2023-04-16T13:32:27.375Z,2.05
2023-04-16T13:34:54.208Z,1.52
2023-04-16T13:37:21.022Z,1.55
2023-04-16T13:39:47.920Z,1.80
2023-04-16T13:42:14.991Z,1.33
2023-04-16T13:44:41.792Z,2.72
2023-04-16T13:47:08.833Z,1.40
2023-04-16T13:49:36.266Z,1.40
2023-04-16T13:52:03.686Z,1.80
2023-04-16T13:54:30.566Z,1.73
2023-04-16T13:56:57.398Z,1.33
2023-04-16T13:59:24.199Z,3.92
2023-04-16T14:01:51.363Z,1.02
2023-04-16T14:04:18.614Z,1.08
2023-04-16T14:06:45.696Z,1.42
2023-04-16T14:09:12.634Z,1.35
2023-04-16T14:11:39.598Z,1.45
2023-04-16T14:14:06.556Z,0.73
2023-04-16T14:16:34.494Z,1.27
2023-04-16T14:19:01.417Z,0.60
2023-04-16T14:21:28.727Z,1.80
2023-04-16T14:23:55.453Z,1.52
2023-04-16T14:26:22.414Z,0.80
2023-04-16T14:28:49.272Z,0.63
2023-04-16T14:31:18.046Z,0.75
2023-04-16T14:33:44.840Z,2.10
2023-04-16T14:36:11.670Z,0.63
2023-04-16T14:38:38.430Z,2.25
2023-04-16T14:41:05.311Z,1.45
2023-04-16T14:43:32.141Z,1.08
2023-04-16T14:45:59.981Z,1.42
2023-04-16T14:48:26.793Z,1.77
2023-04-16T14:50:53.964Z,1.63
2023-04-16T14:53:20.886Z,0.85
2023-04-16T14:55:47.762Z,1.30
2023-04-16T14:58:14.512Z,0.82
2023-04-16T15:00:41.411Z,1.13
2023-04-16T15:03:08.422Z,1.45
2023-04-16T15:05:35.621Z,1.42
2023-04-16T15:08:02.454Z,2.42
2023-04-16T15:10:29.340Z,8.43
2023-04-16T15:12:56.202Z,3.05
2023-04-16T15:15:23.032Z,2.05
2023-04-16T15:17:50.957Z,1.48
2023-04-16T15:20:17.911Z,1.45
2023-04-16T15:22:44.772Z,1.25
2023-04-16T15:25:11.685Z,0.98
2023-04-16T15:27:38.579Z,1.77
2023-04-16T15:30:06.493Z,1.30
2023-04-16T15:32:33.390Z,1.92
2023-04-16T15:35:02.871Z,1.35
2023-04-16T15:37:29.676Z,1.00
2023-04-16T15:39:56.658Z,1.77
2023-04-16T15:42:23.825Z,1.65
2023-04-16T15:44:50.575Z,0.70
2023-04-16T15:47:17.393Z,0.60
2023-04-16T15:49:44.093Z,1.13
2023-04-16T15:52:11.900Z,2.40
2023-04-16T15:54:38.794Z,0.77
2023-04-16T15:57:05.777Z,1.27
2023-04-16T15:59:32.913Z,1.90
2023-04-16T16:02:01.253Z,0.50
2023-04-16T16:04:28.590Z,0.95
2023-04-16T16:06:56.012Z,1.77
2023-04-16T16:09:26.027Z,1.15
2023-04-16T16:11:54.345Z,1.17
2023-04-16T16:14:21.939Z,1.38
2023-04-16T16:16:48.855Z,0.68
2023-04-16T16:19:15.616Z,0.77
2023-04-16T16:21:42.367Z,1.10
2023-04-16T16:24:09.450Z,0.30
2023-04-16T16:26:36.345Z,1.17
2023-04-16T16:29:03.335Z,1.15
2023-04-16T16:31:30.488Z,1.17
2023-04-16T16:33:57.342Z,0.93
2023-04-16T16:36:24.086Z,2.60
2023-04-16T16:38:51.205Z,2.15
2023-04-16T16:41:18.066Z,1.88
2023-04-16T16:43:44.975Z,3.35
2023-04-16T16:46:11.820Z,2.17
2023-04-16T16:48:38.768Z,2.25
2023-04-16T16:51:09.718Z,1.48
2023-04-16T16:53:36.595Z,2.35
2023-04-16T16:56:03.465Z,1.42
2023-04-16T16:58:30.438Z,2.83
2023-04-16T17:00:57.309Z,2.50
2023-04-16T17:03:24.141Z,1.90
2023-04-16T17:05:51.088Z,1.02
2023-04-16T17:08:17.872Z,2.85
2023-04-16T17:10:44.754Z,2.08
2023-04-16T17:13:13.653Z,0.93
2023-04-16T17:15:40.968Z,0.70
2023-04-16T17:18:07.922Z,1.02
2023-04-16T17:20:34.704Z,2.88
2023-04-16T17:23:01.568Z,3.22
2023-04-16T17:25:28.399Z,1.10
2023-04-16T17:27:55.162Z,2.38
2023-04-16T17:30:23.742Z,2.65
2023-04-16T17:32:50.711Z,2.40
2023-04-16T17:35:17.527Z,2.67
2023-04-16T17:37:44.299Z,1.67
2023-04-16T17:40:12.628Z,3.10
2023-04-16T17:42:39.608Z,1.70
2023-04-16T17:45:07.158Z,4.15
2023-04-16T17:47:37.463Z,3.42
2023-04-16T17:50:05.030Z,4.22
2023-04-16T17:52:31.807Z,1.52
2023-04-16T17:55:01.425Z,2.78
2023-04-16T17:57:28.559Z,2.95
2023-04-16T17:59:55.666Z,3.20
2023-04-16T18:02:22.905Z,6.35
2023-04-16T18:04:49.825Z,3.45
2023-04-16T18:07:16.801Z,4.22
2023-04-16T18:09:43.565Z,2.33
2023-04-16T18:12:10.417Z,2.53
2023-04-16T18:14:38.626Z,3.42
2023-04-16T18:17:06.666Z,4.10
2023-04-16T18:19:33.875Z,2.42
2023-04-16T18:22:00.779Z,4.68
2023-04-16T18:24:27.680Z,3.42
2023-04-16T18:26:55.302Z,5.80
2023-04-16T18:29:25.096Z,5.85
2023-04-16T18:31:52.547Z,2.22
2023-04-16T18:34:19.554Z,2.67
2023-04-16T18:36:46.697Z,1.88
2023-04-16T18:39:13.542Z,2.40
2023-04-16T18:41:41.642Z,2.88
2023-04-16T18:44:10.708Z,3.30
2023-04-16T18:46:37.540Z,2.70
2023-04-16T18:49:04.297Z,4.80
2023-04-16T18:51:31.082Z,2.47
2023-04-16T18:53:57.882Z,2.33
2023-04-16T18:56:24.708Z,2.92
2023-04-16T18:58:51.716Z,1.98
2023-04-16T19:01:18.597Z,2.63
2023-04-16T19:03:45.544Z,2.25
2023-04-16T19:06:12.348Z,1.65
2023-04-16T19:08:39.148Z,3.33
2023-04-16T19:11:05.946Z,1.55
2023-04-16T19:13:32.742Z,2.55
2023-04-16T19:16:00.334Z,4.55
2023-04-16T19:18:27.272Z,1.20
2023-04-16T19:21:00.855Z,1.92
2023-04-16T19:23:28.022Z,2.55
2023-04-16T19:25:56.690Z,3.72
2023-04-16T19:28:24.047Z,2.00
2023-04-16T19:30:51.511Z,3.30
2023-04-16T19:33:18.857Z,2.25
2023-04-16T19:35:46.410Z,1.52
2023-04-16T19:38:13.289Z,1.50
2023-04-16T19:40:41.057Z,1.25
2023-04-16T19:43:07.935Z,2.88
2023-04-16T19:45:35.075Z,3.45
2023-04-16T19:48:01.956Z,1.42
2023-04-16T19:50:28.819Z,2.00
2023-04-16T19:52:55.621Z,2.88
2023-04-16T19:55:22.774Z,7.22
2023-04-16T19:57:49.820Z,5.05
2023-04-16T20:00:18.216Z,3.38
2023-04-16T20:02:45.121Z,2.72
2023-04-16T20:05:12.082Z,3.20
2023-04-16T20:07:38.952Z,2.63
2023-04-16T20:10:06.251Z,2.25
2023-04-16T20:12:33.567Z,2.33
2023-04-16T20:15:00.324Z,4.13
2023-04-16T20:17:27.164Z,2.30
2023-04-16T20:20:00.741Z,2.25
2023-04-16T20:24:55.282Z,1.92
2023-04-16T20:27:22.115Z,2.40
2023-04-16T20:29:49.319Z,2.00
2023-04-16T20:32:19.231Z,2.13
2023-04-16T20:34:47.234Z,1.40
2023-04-16T20:37:17.080Z,3.67
2023-04-16T20:39:45.113Z,3.53
2023-04-16T20:42:12.153Z,1.25
2023-04-16T20:44:41.652Z,3.83
2023-04-16T20:47:09.199Z,3.28
2023-04-16T20:49:36.056Z,2.95
2023-04-16T20:52:02.977Z,3.50
2023-04-16T20:54:30.564Z,3.13
2023-04-16T20:56:57.646Z,2.50
2023-04-16T20:59:24.663Z,3.58
2023-04-16T21:01:54.904Z,4.60
2023-04-16T21:04:22.498Z,2.63
2023-04-16T21:06:53.384Z,2.90
2023-04-16T21:09:20.815Z,2.60
2023-04-16T21:11:48.004Z,2.08
2023-04-16T21:14:14.858Z,4.20
2023-04-16T21:16:41.784Z,1.73
2023-04-16T21:19:11.988Z,2.00
2023-04-16T21:21:39.972Z,2.80
2023-04-16T21:24:08.081Z,3.13
2023-04-16T21:26:35.171Z,2.45
2023-04-16T21:29:01.984Z,1.65
2023-04-16T21:31:28.961Z,3.53
2023-04-16T21:33:56.295Z,3.75
2023-04-16T21:36:24.090Z,2.63
2023-04-16T21:38:50.845Z,4.97
2023-04-16T21:41:18.015Z,1.73
2023-04-16T21:43:44.823Z,3.72
2023-04-16T21:46:11.749Z,2.28
2023-04-16T21:48:38.540Z,3.42
2023-04-16T21:51:08.571Z,2.42
2023-04-16T21:53:35.486Z,2.72
2023-04-16T21:56:02.424Z,2.80
2023-04-16T21:58:29.250Z,2.95
2023-04-16T22:00:56.315Z,3.10
2023-04-16T22:03:27.728Z,4.63
2023-04-16T22:06:01.417Z,3.15
2023-04-16T22:11:01.291Z,2.58
2023-04-16T22:13:30.045Z,3.30
2023-04-16T22:15:57.777Z,3.17
2023-04-16T22:18:25.713Z,1.92
2023-04-16T22:20:55.951Z,2.58
2023-04-16T22:23:23.486Z,2.95
2023-04-16T22:25:50.588Z,3.03
2023-04-16T22:28:17.394Z,2.75
2023-04-16T22:30:44.157Z,2.25
2023-04-16T22:33:11.354Z,1.60
2023-04-16T22:35:38.308Z,1.60
2023-04-16T22:38:05.394Z,1.73
2023-04-16T22:40:32.241Z,2.95
2023-04-16T22:42:58.989Z,2.75
2023-04-16T22:45:26.134Z,3.75
2023-04-16T22:47:53.039Z,2.92
2023-04-16T22:50:19.979Z,4.10
2023-04-16T22:52:46.757Z,3.28
2023-04-16T22:55:13.521Z,3.47
2023-04-16T22:57:40.576Z,3.72
2023-04-16T23:00:13.525Z,2.97
2023-04-16T23:02:40.695Z,2.15
2023-04-16T23:05:08.002Z,2.13
2023-04-16T23:07:34.808Z,3.63
2023-04-16T23:10:01.704Z,1.27
2023-04-16T23:12:28.476Z,3.03
2023-04-16T23:14:55.375Z,2.50
2023-04-16T23:17:31.402Z,2.13
2023-04-16T23:19:58.314Z,2.00
2023-04-16T23:22:25.145Z,3.20
2023-04-16T23:24:52.073Z,2.20
2023-04-16T23:27:18.882Z,2.92
2023-04-16T23:29:45.648Z,2.28
2023-04-16T23:32:12.461Z,3.80
2023-04-16T23:34:39.259Z,1.95
2023-04-16T23:37:06.105Z,2.75
2023-04-16T23:39:32.885Z,1.85
2023-04-16T23:41:59.795Z,3.25
2023-04-16T23:44:26.539Z,2.22
2023-04-16T23:46:53.332Z,3.67
2023-04-16T23:49:20.309Z,2.85
2023-04-16T23:51:47.049Z,2.30
2023-04-16T23:54:13.867Z,5.90
2023-04-16T23:56:41.443Z,2.33
2023-04-16T23:59:10.805Z,2.42
